createdAt,value
2022-10-18T00:01:58.654Z,19.46
2022-10-18T00:04:26.695Z,19.38
2022-10-18T00:06:54.736Z,19.06
2022-10-18T00:09:22.809Z,18.83
2022-10-18T00:11:50.904Z,18.77
2022-10-18T00:14:21.841Z,18.47
2022-10-18T00:16:49.968Z,18.22
2022-10-18T00:19:18.014Z,17.74
2022-10-18T00:21:51.541Z,17.47
2022-10-18T00:24:19.631Z,17.26
2022-10-18T00:26:47.713Z,16.98
2022-10-18T00:29:17.013Z,16.73
2022-10-18T00:31:48.519Z,16.32
2022-10-18T00:34:17.624Z,16.11
2022-10-18T00:36:48.904Z,16.00
2022-10-18T00:39:20.388Z,15.61
2022-10-18T00:41:51.722Z,15.55
2022-10-18T00:44:19.691Z,15.79
2022-10-18T00:46:50.030Z,14.41
2022-10-18T00:49:22.493Z,14.13
2022-10-18T00:51:57.676Z,13.41
2022-10-18T00:54:27.418Z,13.75
2022-10-18T00:56:58.075Z,13.71
2022-10-18T00:59:27.127Z,13.62
2022-10-18T01:01:55.367Z,13.48
2022-10-18T01:04:26.345Z,13.30
2022-10-18T01:07:21.724Z,13.13
2022-10-18T01:10:00.829Z,12.75
2022-10-18T01:12:40.313Z,12.69
2022-10-18T01:15:34.310Z,12.53
2022-10-18T01:18:26.512Z,12.42
2022-10-18T01:21:32.206Z,12.31
2022-10-18T01:24:27.424Z,12.20
2022-10-18T01:27:16.466Z,12.19
2022-10-18T01:30:04.446Z,11.97
2022-10-18T01:32:49.640Z,11.77
2022-10-18T01:35:25.625Z,11.62
2022-10-18T01:37:58.776Z,11.48
2022-10-18T01:40:30.460Z,11.28
2022-10-18T01:42:58.800Z,11.18
2022-10-18T01:45:27.942Z,11.45
2022-10-18T01:47:56.517Z,11.35
2022-10-18T01:50:33.729Z,11.28
2022-10-18T01:53:02.181Z,10.68
2022-10-18T01:55:45.025Z,10.44
2022-10-18T01:58:12.946Z,10.41
2022-10-18T02:00:44.961Z,10.04
2022-10-18T02:03:28.879Z,9.86
2022-10-18T02:06:27.329Z,10.08
2022-10-18T02:09:10.246Z,10.10
2022-10-18T02:11:45.152Z,10.33
2022-10-18T02:14:14.836Z,10.27
2022-10-18T02:16:51.257Z,10.05
2022-10-18T02:19:39.023Z,10.01
2022-10-18T02:22:09.455Z,9.69
2022-10-18T02:24:49.395Z,9.66
2022-10-18T02:27:20.453Z,9.22
2022-10-18T02:29:49.241Z,9.11
2022-10-18T02:32:22.819Z,9.07
2022-10-18T02:35:06.734Z,8.89
2022-10-18T02:37:39.524Z,8.82
2022-10-18T02:40:09.941Z,8.91
2022-10-18T02:42:45.312Z,8.74
2022-10-18T02:45:14.727Z,8.66
2022-10-18T02:47:43.353Z,8.56
2022-10-18T02:50:11.555Z,8.51
2022-10-18T02:52:42.613Z,8.28
2022-10-18T02:55:11.760Z,7.90
2022-10-18T02:57:39.800Z,7.87
2022-10-18T03:00:08.724Z,8.05
2022-10-18T03:02:36.991Z,8.30
2022-10-18T03:05:05.245Z,8.12
2022-10-18T03:07:33.585Z,8.11
2022-10-18T03:10:01.944Z,8.18
2022-10-18T03:12:29.988Z,8.46
2022-10-18T03:14:58.051Z,8.15
2022-10-18T03:17:26.170Z,7.70
2022-10-18T03:19:54.163Z,8.03
2022-10-18T03:22:24.945Z,8.00
2022-10-18T03:24:55.320Z,8.02
2022-10-18T03:27:26.274Z,8.05
2022-10-18T03:29:54.277Z,7.52
2022-10-18T03:32:22.315Z,7.56
2022-10-18T03:34:50.396Z,6.75
2022-10-18T03:37:18.386Z,6.30
2022-10-18T03:39:46.410Z,6.63
2022-10-18T03:42:16.969Z,6.93
2022-10-18T03:44:45.009Z,7.08
2022-10-18T03:47:13.050Z,7.32
2022-10-18T03:49:41.089Z,7.41
2022-10-18T03:52:09.410Z,7.20
2022-10-18T03:54:39.843Z,6.85
2022-10-18T03:57:07.925Z,6.56
2022-10-18T03:59:38.943Z,6.61
2022-10-18T04:02:06.922Z,6.66
2022-10-18T04:04:34.961Z,6.62
2022-10-18T04:07:03.937Z,6.55
2022-10-18T04:09:32.132Z,6.43
2022-10-18T04:12:00.149Z,6.59
2022-10-18T04:14:28.344Z,6.70
2022-10-18T04:16:59.212Z,6.61
2022-10-18T04:19:27.209Z,6.65
2022-10-18T04:21:55.505Z,6.68
2022-10-18T04:24:23.654Z,6.63
2022-10-18T04:26:51.746Z,6.58
2022-10-18T04:29:22.188Z,6.54
2022-10-18T04:31:50.211Z,6.43
2022-10-18T04:34:20.610Z,6.41
2022-10-18T04:36:51.719Z,6.29
2022-10-18T04:39:19.702Z,6.23
2022-10-18T04:41:47.743Z,6.09
2022-10-18T04:44:16.186Z,6.15
2022-10-18T04:46:44.294Z,6.17
2022-10-18T04:49:12.332Z,6.19
2022-10-18T04:51:40.406Z,6.06
2022-10-18T04:54:08.417Z,5.81
2022-10-18T04:56:39.294Z,5.44
2022-10-18T04:59:07.316Z,5.44
2022-10-18T05:01:35.385Z,5.53
2022-10-18T05:04:03.492Z,5.54
2022-10-18T05:06:31.708Z,5.20
2022-10-18T05:09:02.581Z,5.30
2022-10-18T05:11:30.597Z,5.38
2022-10-18T05:14:01.496Z,5.44
2022-10-18T05:16:29.545Z,5.32
2022-10-18T05:18:57.541Z,5.27
2022-10-18T05:21:25.579Z,5.23
2022-10-18T05:23:56.771Z,5.16
2022-10-18T05:26:24.852Z,5.04
2022-10-18T05:28:53.026Z,5.23
2022-10-18T05:31:21.215Z,5.21
2022-10-18T05:33:49.391Z,5.26
2022-10-18T05:36:17.417Z,5.27
2022-10-18T05:38:45.453Z,5.23
2022-10-18T05:41:15.968Z,5.15
2022-10-18T05:43:43.951Z,5.04
2022-10-18T05:46:15.790Z,4.93
2022-10-18T05:48:50.397Z,4.97
2022-10-18T05:51:19.456Z,4.89
2022-10-18T05:53:47.548Z,4.88
2022-10-18T05:56:15.581Z,4.84
2022-10-18T05:58:50.360Z,4.83
2022-10-18T06:01:18.901Z,4.90
2022-10-18T06:03:46.956Z,4.68
2022-10-18T06:06:15.635Z,4.37
2022-10-18T06:08:44.954Z,4.26
2022-10-18T06:11:17.837Z,4.49
2022-10-18T06:13:50.665Z,4.47
2022-10-18T06:16:21.187Z,4.28
2022-10-18T06:18:56.490Z,4.52
2022-10-18T06:21:25.752Z,4.51
2022-10-18T06:23:58.675Z,4.38
2022-10-18T06:26:28.056Z,4.20
2022-10-18T06:28:56.164Z,3.80
2022-10-18T06:31:24.217Z,3.53
2022-10-18T06:33:52.319Z,3.74
2022-10-18T06:36:23.210Z,3.71
2022-10-18T06:38:51.770Z,3.44
2022-10-18T06:41:20.113Z,3.56
2022-10-18T06:43:52.175Z,3.60
2022-10-18T06:46:22.576Z,3.65
2022-10-18T06:48:50.608Z,3.62
2022-10-18T06:51:18.676Z,3.78
2022-10-18T06:53:59.642Z,3.80
2022-10-18T06:56:39.782Z,3.85
2022-10-18T06:59:07.844Z,3.88
2022-10-18T07:01:35.944Z,3.95
2022-10-18T07:04:04.173Z,3.72
2022-10-18T07:06:32.259Z,3.53
2022-10-18T07:09:02.625Z,3.62
2022-10-18T07:11:30.777Z,3.72
2022-10-18T07:14:05.756Z,3.78
2022-10-18T07:16:35.326Z,3.70
2022-10-18T07:19:03.383Z,3.81
2022-10-18T07:21:31.663Z,3.79
2022-10-18T07:23:59.704Z,3.80
2022-10-18T07:26:35.439Z,4.01
2022-10-18T07:29:11.130Z,3.85
2022-10-18T07:31:39.633Z,3.91
2022-10-18T07:34:09.962Z,3.90
2022-10-18T07:36:38.349Z,3.77
2022-10-18T07:39:07.136Z,3.70
2022-10-18T07:41:35.719Z,3.43
2022-10-18T07:44:09.312Z,3.21
2022-10-18T07:46:37.332Z,3.29
2022-10-18T07:49:05.481Z,3.26
2022-10-18T07:51:33.588Z,3.26
2022-10-18T07:54:01.605Z,3.38
2022-10-18T07:56:31.951Z,3.37
2022-10-18T07:59:00.050Z,3.29
2022-10-18T08:01:30.426Z,3.03
2022-10-18T08:03:59.513Z,2.80
2022-10-18T08:06:30.211Z,2.36
2022-10-18T08:08:58.294Z,2.50
2022-10-18T08:11:27.369Z,2.62
2022-10-18T08:13:55.724Z,2.69
2022-10-18T08:16:26.252Z,2.77
2022-10-18T08:18:54.960Z,2.87
2022-10-18T08:21:26.741Z,2.83
2022-10-18T08:23:54.832Z,2.89
2022-10-18T08:26:25.274Z,2.85
2022-10-18T08:29:10.211Z,2.85
2022-10-18T08:31:38.745Z,2.62
2022-10-18T08:34:06.781Z,2.64
2022-10-18T08:36:34.828Z,2.75
2022-10-18T08:39:04.466Z,2.75
2022-10-18T08:41:38.532Z,2.85
2022-10-18T08:44:14.805Z,2.96
2022-10-18T08:47:05.651Z,2.90
2022-10-18T08:49:47.086Z,2.88
2022-10-18T08:52:53.402Z,2.83
2022-10-18T08:55:32.866Z,2.86
2022-10-18T08:58:00.859Z,2.21
2022-10-18T09:00:33.632Z,2.25
2022-10-18T09:03:23.084Z,2.29
2022-10-18T09:06:01.061Z,2.20
2022-10-18T09:09:01.415Z,2.22
2022-10-18T09:11:52.769Z,2.26
2022-10-18T09:14:38.684Z,1.93
2022-10-18T09:17:22.233Z,1.89
2022-10-18T09:20:13.821Z,1.87
2022-10-18T09:22:52.584Z,1.95
2022-10-18T09:25:25.165Z,1.98
2022-10-18T09:28:17.799Z,2.02
2022-10-18T09:31:13.435Z,2.04
2022-10-18T09:33:51.244Z,2.08
2022-10-18T09:36:30.645Z,2.06
2022-10-18T09:39:04.441Z,2.09
2022-10-18T09:41:40.991Z,1.91
2022-10-18T09:44:24.518Z,1.92
2022-10-18T09:47:21.327Z,2.00
2022-10-18T09:50:28.022Z,2.04
2022-10-18T09:53:19.322Z,1.93
2022-10-18T09:56:12.842Z,2.10
2022-10-18T09:58:46.881Z,1.60
2022-10-18T10:01:21.922Z,1.54
2022-10-18T10:03:53.062Z,1.40
2022-10-18T10:06:30.277Z,1.51
2022-10-18T10:09:05.344Z,1.34
2022-10-18T10:11:39.932Z,1.52
2022-10-18T10:14:21.526Z,1.49
2022-10-18T10:16:54.152Z,1.55
2022-10-18T10:19:27.372Z,1.45
2022-10-18T10:22:14.072Z,1.56
2022-10-18T10:24:50.227Z,1.57
2022-10-18T10:27:22.928Z,1.58
2022-10-18T10:30:01.419Z,1.58
2022-10-18T10:32:49.198Z,1.46
2022-10-18T10:35:56.101Z,1.46
2022-10-18T10:38:29.953Z,1.73
2022-10-18T10:40:58.431Z,1.72
2022-10-18T10:43:40.097Z,1.64
2022-10-18T10:46:17.334Z,1.65
2022-10-18T10:49:08.422Z,1.72
2022-10-18T10:51:43.769Z,1.72
2022-10-18T10:54:20.332Z,1.60
2022-10-18T10:57:00.325Z,1.69
2022-10-18T11:02:18.103Z,1.44
2022-10-18T11:04:48.470Z,1.52
2022-10-18T11:07:37.346Z,1.43
2022-10-18T11:10:11.034Z,1.32
2022-10-18T11:12:50.474Z,1.23
2022-10-18T11:15:27.086Z,1.03
2022-10-18T11:18:01.320Z,0.98
2022-10-18T11:20:32.267Z,0.86
2022-10-18T11:23:04.254Z,0.83
2022-10-18T11:26:13.371Z,0.58
2022-10-18T11:29:17.268Z,0.25
2022-10-18T11:32:00.117Z,0.59
2022-10-18T11:34:33.820Z,0.68
2022-10-18T11:37:28.513Z,0.95
2022-10-18T11:40:16.036Z,1.11
2022-10-18T11:43:03.072Z,1.49
2022-10-18T11:45:52.575Z,1.26
2022-10-18T11:48:41.787Z,1.12
2022-10-18T11:52:07.117Z,1.01
2022-10-18T11:54:47.585Z,0.96
2022-10-18T11:57:18.578Z,1.01
2022-10-18T12:00:30.676Z,1.07
2022-10-18T12:03:35.668Z,1.07
2022-10-18T12:06:13.319Z,1.10
2022-10-18T12:08:49.211Z,0.91
2022-10-18T12:11:24.990Z,0.81
2022-10-18T12:14:06.229Z,0.93
2022-10-18T12:16:51.366Z,0.75
2022-10-18T12:19:27.616Z,0.83
2022-10-18T12:22:09.272Z,0.86
2022-10-18T12:24:38.132Z,0.95
2022-10-18T12:27:12.480Z,1.16
2022-10-18T12:29:48.048Z,1.19
2022-10-18T12:32:29.302Z,1.19
2022-10-18T12:35:16.676Z,1.18
2022-10-18T12:38:16.843Z,1.06
2022-10-18T12:40:50.339Z,0.92
2022-10-18T12:43:23.828Z,0.53
2022-10-18T12:46:00.307Z,0.51
2022-10-18T12:48:40.191Z,0.60
2022-10-18T12:51:21.094Z,0.66
2022-10-18T12:54:14.312Z,0.60
2022-10-18T12:56:44.120Z,0.73
2022-10-18T12:59:18.028Z,0.79
2022-10-18T13:01:52.108Z,0.73
2022-10-18T13:04:29.387Z,0.79
2022-10-18T13:07:00.188Z,0.66
2022-10-18T13:09:31.871Z,0.62
2022-10-18T13:12:19.694Z,0.50
2022-10-18T13:15:25.986Z,0.39
2022-10-18T13:18:07.621Z,0.45
2022-10-18T13:21:03.562Z,0.44
2022-10-18T13:23:47.533Z,0.44
2022-10-18T13:26:31.166Z,0.37
2022-10-18T13:29:40.303Z,0.56
2022-10-18T13:32:44.823Z,0.56
2022-10-18T13:35:49.618Z,0.73
2022-10-18T13:39:06.054Z,0.71
2022-10-18T13:41:59.577Z,0.95
2022-10-18T13:44:35.512Z,0.62
2022-10-18T13:47:03.473Z,0.12
2022-10-18T13:49:40.260Z,0.19
2022-10-18T13:52:42.103Z,0.34
2022-10-18T13:55:31.439Z,0.49
2022-10-18T13:57:59.430Z,0.43
2022-10-18T14:00:49.274Z,0.39
2022-10-18T14:03:55.719Z,0.51
2022-10-18T14:06:21.063Z,0.46
2022-10-18T14:09:45.653Z,0.56
2022-10-18T14:12:46.504Z,0.54
2022-10-18T14:15:18.772Z,0.34
2022-10-18T14:17:49.714Z,0.17
2022-10-18T14:20:55.196Z,0.24
2022-10-18T14:23:44.582Z,0.27
2022-10-18T14:26:22.092Z,0.24
2022-10-18T14:29:07.898Z,0.32
2022-10-18T14:31:39.042Z,0.48
2022-10-18T14:34:07.343Z,0.36
2022-10-18T14:36:42.376Z,0.33
2022-10-18T14:39:23.353Z,0.32
2022-10-18T14:41:56.224Z,0.42
2022-10-18T14:44:29.836Z,0.48
2022-10-18T14:47:25.830Z,0.64
2022-10-18T14:49:57.710Z,0.58
2022-10-18T14:52:35.483Z,0.65
2022-10-18T14:55:03.974Z,0.59
2022-10-18T14:57:36.643Z,0.64
2022-10-18T15:02:59.910Z,0.65
2022-10-18T15:05:27.995Z,0.69
2022-10-18T15:07:59.275Z,0.79
2022-10-18T15:10:35.351Z,0.83
2022-10-18T15:13:12.823Z,0.51
2022-10-18T15:15:41.856Z,0.79
2022-10-18T15:18:26.419Z,0.92
2022-10-18T15:21:23.546Z,1.07
2022-10-18T15:23:54.866Z,1.09
2022-10-18T15:26:26.731Z,0.93
2022-10-18T15:28:55.327Z,0.96
2022-10-18T15:31:32.871Z,1.19
2022-10-18T15:34:26.720Z,1.36
2022-10-18T15:36:57.987Z,1.44
2022-10-18T15:39:33.027Z,1.37
2022-10-18T15:42:05.203Z,1.70
2022-10-18T15:44:47.700Z,1.79
2022-10-18T15:47:17.784Z,1.86
2022-10-18T15:49:45.768Z,1.89
2022-10-18T15:52:37.721Z,2.03
2022-10-18T15:55:31.337Z,2.52
2022-10-18T15:58:16.892Z,2.54
2022-10-18T16:00:49.275Z,2.66
2022-10-18T16:03:19.705Z,2.80
2022-10-18T16:05:47.780Z,2.85
2022-10-18T16:08:25.737Z,2.80
2022-10-18T16:10:54.001Z,3.14
2022-10-18T16:13:21.994Z,3.35
2022-10-18T16:15:55.417Z,3.62
2022-10-18T16:18:24.799Z,3.87
2022-10-18T16:20:55.193Z,4.11
2022-10-18T16:23:29.205Z,4.30
2022-10-18T16:25:57.941Z,4.51
2022-10-18T16:28:27.301Z,4.33
2022-10-18T16:31:03.562Z,4.38
2022-10-18T16:33:32.084Z,4.54
2022-10-18T16:36:02.646Z,4.67
2022-10-18T16:38:37.169Z,4.73
2022-10-18T16:41:06.672Z,4.99
2022-10-18T16:43:35.928Z,5.22
2022-10-18T16:46:05.716Z,5.18
2022-10-18T16:48:34.063Z,5.51
2022-10-18T16:51:02.643Z,5.52
2022-10-18T16:53:33.381Z,5.76
2022-10-18T16:56:09.735Z,6.13
2022-10-18T16:58:37.903Z,6.38
2022-10-18T17:01:08.137Z,6.77
2022-10-18T17:03:37.148Z,6.91
2022-10-18T17:06:06.565Z,6.94
2022-10-18T17:08:36.961Z,6.73
2022-10-18T17:11:05.050Z,6.93
2022-10-18T17:13:36.163Z,6.81
2022-10-18T17:16:04.669Z,7.01
2022-10-18T17:18:32.948Z,7.08
2022-10-18T17:21:04.407Z,7.23
2022-10-18T17:23:35.026Z,7.41
2022-10-18T17:26:27.360Z,7.85
2022-10-18T17:29:01.543Z,7.54
2022-10-18T17:31:31.284Z,7.78
2022-10-18T17:34:02.316Z,7.98
2022-10-18T17:36:32.558Z,7.98
2022-10-18T17:39:01.009Z,8.10
2022-10-18T17:41:32.016Z,8.25
2022-10-18T17:44:00.039Z,8.46
2022-10-18T17:46:30.984Z,8.90
2022-10-18T17:49:05.888Z,9.23
2022-10-18T17:51:34.021Z,9.40
2022-10-18T17:54:05.899Z,9.79
2022-10-18T17:56:36.385Z,10.04
2022-10-18T17:59:09.238Z,9.84
2022-10-18T18:01:37.427Z,9.78
2022-10-18T18:04:05.536Z,9.96
2022-10-18T18:06:36.376Z,9.55
2022-10-18T18:09:08.754Z,9.92
2022-10-18T18:11:38.775Z,9.68
2022-10-18T18:14:07.661Z,10.01
2022-10-18T18:16:37.670Z,10.29
2022-10-18T18:19:09.686Z,10.24
2022-10-18T18:21:41.722Z,10.73
2022-10-18T18:24:10.414Z,11.34
2022-10-18T18:26:39.861Z,11.05
2022-10-18T18:29:08.317Z,11.00
2022-10-18T18:31:39.896Z,11.14
2022-10-18T18:34:10.130Z,11.36
2022-10-18T18:36:40.934Z,11.53
2022-10-18T18:39:09.500Z,11.85
2022-10-18T18:41:37.488Z,11.64
2022-10-18T18:44:06.417Z,12.05
2022-10-18T18:46:36.501Z,12.21
2022-10-18T18:49:08.086Z,12.23
2022-10-18T18:51:36.744Z,12.64
2022-10-18T18:54:05.245Z,12.38
2022-10-18T18:56:35.902Z,12.89
2022-10-18T18:59:04.923Z,12.94
2022-10-18T19:01:36.119Z,13.19
2022-10-18T19:04:05.989Z,13.46
2022-10-18T19:06:37.048Z,13.32
2022-10-18T19:09:08.494Z,13.75
2022-10-18T19:11:40.061Z,14.11
2022-10-18T19:14:09.409Z,13.55
2022-10-18T19:16:54.670Z,13.57
2022-10-18T19:19:27.661Z,13.99
2022-10-18T19:22:01.540Z,14.49
2022-10-18T19:24:31.429Z,15.02
2022-10-18T19:27:03.929Z,14.79
2022-10-18T19:29:39.133Z,15.36
2022-10-18T19:32:09.660Z,14.53
2022-10-18T19:34:40.432Z,14.89
2022-10-18T19:37:08.459Z,16.09
2022-10-18T19:39:36.885Z,16.09
2022-10-18T19:42:07.799Z,16.37
2022-10-18T19:44:37.435Z,16.32
2022-10-18T19:47:07.527Z,15.70
2022-10-18T19:49:35.550Z,15.86
2022-10-18T19:52:04.246Z,16.74
2022-10-18T19:54:32.318Z,16.61
2022-10-18T19:57:02.657Z,17.37
2022-10-18T19:59:30.905Z,17.83
2022-10-18T20:01:58.948Z,17.39
2022-10-18T20:04:27.009Z,17.55
2022-10-18T20:06:57.641Z,17.23
2022-10-18T20:09:25.646Z,17.38
2022-10-18T20:11:53.660Z,16.86
2022-10-18T20:14:21.655Z,16.46
2022-10-18T20:16:49.673Z,17.57
2022-10-18T20:19:20.321Z,17.61
2022-10-18T20:21:55.242Z,17.73
2022-10-18T20:24:26.144Z,16.91
2022-10-18T20:26:54.180Z,17.73
2022-10-18T20:29:24.976Z,18.15
2022-10-18T20:31:55.879Z,18.63
2022-10-18T20:34:23.921Z,18.50
2022-10-18T20:36:57.458Z,18.89
2022-10-18T20:39:25.624Z,19.00
2022-10-18T20:41:53.696Z,19.95
2022-10-18T20:44:24.558Z,19.11
2022-10-18T20:46:52.587Z,19.16
2022-10-18T20:49:20.751Z,19.24
2022-10-18T20:51:48.811Z,18.49
2022-10-18T20:54:19.493Z,18.09
2022-10-18T20:56:47.551Z,19.41
2022-10-18T20:59:18.438Z,19.49
2022-10-18T21:01:51.828Z,19.62
2022-10-18T21:04:20.100Z,20.28
2022-10-18T21:06:50.431Z,20.63
2022-10-18T21:09:20.480Z,20.06
2022-10-18T21:11:51.195Z,20.42
2022-10-18T21:14:21.295Z,21.13
2022-10-18T21:16:52.928Z,20.92
2022-10-18T21:19:27.098Z,20.81
2022-10-18T21:21:57.874Z,20.27
2022-10-18T21:24:27.507Z,19.98
2022-10-18T21:26:55.789Z,21.06
2022-10-18T21:29:24.818Z,21.26
2022-10-18T21:31:56.858Z,20.69
2022-10-18T21:34:24.978Z,19.85
2022-10-18T21:36:53.177Z,20.10
2022-10-18T21:41:53.014Z,19.64
2022-10-18T21:44:21.113Z,20.01
2022-10-18T21:46:49.607Z,20.11
2022-10-18T21:49:21.146Z,20.59
2022-10-18T21:51:49.164Z,20.95
2022-10-18T21:54:17.577Z,20.65
2022-10-18T21:56:48.185Z,20.03
2022-10-18T21:59:16.171Z,20.21
2022-10-18T22:01:47.108Z,20.75
2022-10-18T22:04:21.197Z,20.37
2022-10-18T22:06:48.870Z,20.33
2022-10-18T22:09:20.167Z,21.53
2022-10-18T22:11:51.715Z,25.10
2022-10-18T22:14:20.058Z,26.53
2022-10-18T22:16:50.419Z,27.56
2022-10-18T22:19:18.717Z,26.16
2022-10-18T22:21:46.724Z,26.11
2022-10-18T22:24:14.826Z,22.37
2022-10-18T22:26:44.558Z,22.01
2022-10-18T22:29:16.600Z,23.18
2022-10-18T22:31:48.049Z,23.98
2022-10-18T22:34:21.939Z,24.75
2022-10-18T22:36:49.668Z,25.61
2022-10-18T22:39:18.566Z,23.00
2022-10-18T22:41:49.097Z,22.55
2022-10-18T22:44:17.159Z,21.82
2022-10-18T22:46:45.184Z,21.62
2022-10-18T22:49:13.731Z,20.64
2022-10-18T22:51:41.864Z,20.34
2022-10-18T22:54:10.172Z,20.37
2022-10-18T22:56:38.285Z,20.88
2022-10-18T22:59:06.398Z,20.88
2022-10-18T23:01:34.485Z,20.78
2022-10-18T23:04:02.831Z,22.28
2022-10-18T23:06:33.760Z,21.70
2022-10-18T23:09:04.599Z,20.62
2022-10-18T23:11:32.957Z,20.35
2022-10-18T23:14:01.779Z,19.93
2022-10-18T23:16:29.810Z,19.88
2022-10-18T23:18:59.007Z,20.62
2022-10-18T23:21:29.376Z,23.69
2022-10-18T23:23:58.104Z,23.32
2022-10-18T23:26:28.288Z,23.47
2022-10-18T23:28:56.680Z,23.45
2022-10-18T23:31:26.324Z,22.42
2022-10-18T23:33:59.196Z,22.84
2022-10-18T23:36:28.121Z,20.89
2022-10-18T23:38:56.611Z,20.00
2022-10-18T23:41:25.279Z,19.61
2022-10-18T23:43:54.051Z,19.28
2022-10-18T23:46:22.244Z,19.60
2022-10-18T23:48:52.985Z,19.12
2022-10-18T23:51:21.117Z,19.00
2022-10-18T23:53:49.198Z,19.07
2022-10-18T23:56:20.407Z,18.77
2022-10-18T23:58:51.015Z,18.45
